Aviation Digital Data Service (ADDS)

Output produced by METARs form (1951 UTC 30 September 2014)
found at http://www.aviationweather.gov/adds/metars/
 
KPIA 301936Z 3020/0118 06008KT P6SM SCT050 BKN250 
     FM010000 08006KT P6SM SCT250 
     FM010900 10006KT 4SM BR SCT250 
     FM011400 15009KT P6SM SCT040 SCT250